sensor_id;sensor_type;location;lat;lon;timestamp;temperature;humidity
15241;DHT22;7723;52.170;9.978;2024-02-23T00:01:06;8.80;1.00
15241;DHT22;7723;52.170;9.978;2024-02-23T00:03:33;8.80;99.90
15241;DHT22;7723;52.170;9.978;2024-02-23T00:06:02;8.70;99.90
15241;DHT22;7723;52.170;9.978;2024-02-23T00:08:30;8.80;99.90
15241;DHT22;7723;52.170;9.978;2024-02-23T00:10:58;8.80;1.00
15241;DHT22;7723;52.170;9.978;2024-02-23T00:13:25;8.70;1.00
15241;DHT22;7723;52.170;9.978;2024-02-23T00:15:52;8.70;1.00
15241;DHT22;7723;52.170;9.978;2024-02-23T00:18:19;8.60;1.00
15241;DHT22;7723;52.170;9.978;2024-02-23T00:20:46;8.50;1.00
15241;DHT22;7723;52.170;9.978;2024-02-23T00:23:13;8.50;1.00
15241;DHT22;7723;52.170;9.978;2024-02-23T00:25:42;8.50;1.00
15241;DHT22;7723;52.170;9.978;2024-02-23T00:28:09;8.40;1.00
15241;DHT22;7723;52.170;9.978;2024-02-23T00:30:36;8.50;1.00
15241;DHT22;7723;52.170;9.978;2024-02-23T00:33:04;8.50;13.80
15241;DHT22;7723;52.170;9.978;2024-02-23T00:35:31;8.50;1.00
15241;DHT22;7723;52.170;9.978;2024-02-23T00:37:58;8.50;1.00
15241;DHT22;7723;52.170;9.978;2024-02-23T00:40:25;8.50;1.00
15241;DHT22;7723;52.170;9.978;2024-02-23T00:42:54;8.60;1.00
15241;DHT22;7723;52.170;9.978;2024-02-23T00:45:21;8.60;1.00
15241;DHT22;7723;52.170;9.978;2024-02-23T00:47:48;8.50;1.00
15241;DHT22;7723;52.170;9.978;2024-02-23T00:50:15;8.50;1.00
15241;DHT22;7723;52.170;9.978;2024-02-23T00:52:42;8.50;1.00
15241;DHT22;7723;52.170;9.978;2024-02-23T00:55:10;8.50;1.00
15241;DHT22;7723;52.170;9.978;2024-02-23T00:57:38;8.50;99.90
15241;DHT22;7723;52.170;9.978;2024-02-23T01:00:10;8.60;99.90
15241;DHT22;7723;52.170;9.978;2024-02-23T01:02:38;8.60;99.90
15241;DHT22;7723;52.170;9.978;2024-02-23T01:05:06;8.60;99.90
15241;DHT22;7723;52.170;9.978;2024-02-23T01:07:35;8.60;99.90
15241;DHT22;7723;52.170;9.978;2024-02-23T01:10:02;8.50;99.90
15241;DHT22;7723;52.170;9.978;2024-02-23T01:12:29;8.60;99.90
15241;DHT22;7723;52.170;9.978;2024-02-23T01:14:56;8.60;99.90
15241;DHT22;7723;52.170;9.978;2024-02-23T01:17:25;8.50;99.90
15241;DHT22;7723;52.170;9.978;2024-02-23T01:19:52;8.40;99.90
15241;DHT22;7723;52.170;9.978;2024-02-23T01:22:19;8.30;99.90
15241;DHT22;7723;52.170;9.978;2024-02-23T01:24:46;8.30;99.90
15241;DHT22;7723;52.170;9.978;2024-02-23T01:27:13;8.20;99.90
15241;DHT22;7723;52.170;9.978;2024-02-23T01:29:40;8.10;99.90
15241;DHT22;7723;52.170;9.978;2024-02-23T01:32:07;8.10;99.90
15241;DHT22;7723;52.170;9.978;2024-02-23T01:34:36;8.10;1.00
15241;DHT22;7723;52.170;9.978;2024-02-23T01:37:03;7.80;99.90
15241;DHT22;7723;52.170;9.978;2024-02-23T01:39:33;7.60;99.90
15241;DHT22;7723;52.170;9.978;2024-02-23T01:42:00;7.60;1.00
15241;DHT22;7723;52.170;9.978;2024-02-23T01:44:27;7.50;99.90
15241;DHT22;7723;52.170;9.978;2024-02-23T01:46:54;7.50;99.90
15241;DHT22;7723;52.170;9.978;2024-02-23T01:49:22;7.50;1.00
15241;DHT22;7723;52.170;9.978;2024-02-23T01:51:57;7.40;44.40
15241;DHT22;7723;52.170;9.978;2024-02-23T01:54:24;7.30;1.00
15241;DHT22;7723;52.170;9.978;2024-02-23T01:56:51;7.20;8.20
15241;DHT22;7723;52.170;9.978;2024-02-23T01:59:19;7.00;1.00
15241;DHT22;7723;52.170;9.978;2024-02-23T02:01:47;6.90;1.00
15241;DHT22;7723;52.170;9.978;2024-02-23T02:04:14;6.80;99.90
15241;DHT22;7723;52.170;9.978;2024-02-23T02:06:41;6.70;1.00
15241;DHT22;7723;52.170;9.978;2024-02-23T02:09:10;6.70;99.90
15241;DHT22;7723;52.170;9.978;2024-02-23T02:11:45;6.70;99.90
15241;DHT22;7723;52.170;9.978;2024-02-23T02:14:13;6.50;1.00
15241;DHT22;7723;52.170;9.978;2024-02-23T02:16:40;6.50;1.00
15241;DHT22;7723;52.170;9.978;2024-02-23T02:19:07;6.40;28.40
15241;DHT22;7723;52.170;9.978;2024-02-23T02:21:34;6.30;99.90
15241;DHT22;7723;52.170;9.978;2024-02-23T02:24:01;6.30;1.00
15241;DHT22;7723;52.170;9.978;2024-02-23T02:26:30;6.30;1.00
15241;DHT22;7723;52.170;9.978;2024-02-23T02:28:58;6.20;1.00
15241;DHT22;7723;52.170;9.978;2024-02-23T02:31:25;6.10;13.00
15241;DHT22;7723;52.170;9.978;2024-02-23T02:33:53;6.10;1.00
15241;DHT22;7723;52.170;9.978;2024-02-23T02:36:20;6.10;1.00
15241;DHT22;7723;52.170;9.978;2024-02-23T02:38:46;6.20;99.90
15241;DHT22;7723;52.170;9.978;2024-02-23T02:41:13;6.20;1.00
15241;DHT22;7723;52.170;9.978;2024-02-23T02:43:42;6.20;99.90
15241;DHT22;7723;52.170;9.978;2024-02-23T02:46:09;6.20;99.90
15241;DHT22;7723;52.170;9.978;2024-02-23T02:48:36;6.00;93.80
15241;DHT22;7723;52.170;9.978;2024-02-23T02:51:04;5.90;99.90
15241;DHT22;7723;52.170;9.978;2024-02-23T02:53:31;5.80;99.90
15241;DHT22;7723;52.170;9.978;2024-02-23T02:55:58;5.80;26.60
15241;DHT22;7723;52.170;9.978;2024-02-23T02:58:25;5.70;1.00
15241;DHT22;7723;52.170;9.978;2024-02-23T03:00:53;5.80;99.90
15241;DHT22;7723;52.170;9.978;2024-02-23T03:03:20;5.80;1.00
15241;DHT22;7723;52.170;9.978;2024-02-23T03:05:48;5.80;99.90
15241;DHT22;7723;52.170;9.978;2024-02-23T03:08:15;5.80;99.90
15241;DHT22;7723;52.170;9.978;2024-02-23T03:10:42;5.90;1.00
15241;DHT22;7723;52.170;9.978;2024-02-23T03:13:09;5.90;99.90
15241;DHT22;7723;52.170;9.978;2024-02-23T03:15:36;5.90;99.90
15241;DHT22;7723;52.170;9.978;2024-02-23T03:18:04;5.90;1.00
15241;DHT22;7723;52.170;9.978;2024-02-23T03:20:35;5.80;1.00
15241;DHT22;7723;52.170;9.978;2024-02-23T03:23:02;5.80;1.00
15241;DHT22;7723;52.170;9.978;2024-02-23T03:25:29;5.70;99.90
15241;DHT22;7723;52.170;9.978;2024-02-23T03:27:56;5.60;1.00
15241;DHT22;7723;52.170;9.978;2024-02-23T03:30:23;5.60;99.90
15241;DHT22;7723;52.170;9.978;2024-02-23T03:32:50;5.60;1.00
15241;DHT22;7723;52.170;9.978;2024-02-23T03:35:19;5.60;1.00
15241;DHT22;7723;52.170;9.978;2024-02-23T03:37:46;5.60;99.90
15241;DHT22;7723;52.170;9.978;2024-02-23T03:40:13;5.50;1.00
15241;DHT22;7723;52.170;9.978;2024-02-23T03:42:41;5.40;1.00
15241;DHT22;7723;52.170;9.978;2024-02-23T03:45:08;5.50;1.00
15241;DHT22;7723;52.170;9.978;2024-02-23T03:47:35;5.50;99.90
15241;DHT22;7723;52.170;9.978;2024-02-23T03:50:03;5.40;99.90
15241;DHT22;7723;52.170;9.978;2024-02-23T03:52:32;5.40;99.90
15241;DHT22;7723;52.170;9.978;2024-02-23T03:54:59;5.40;1.00
15241;DHT22;7723;52.170;9.978;2024-02-23T03:57:26;5.40;1.00
15241;DHT22;7723;52.170;9.978;2024-02-23T03:59:53;5.40;1.00
15241;DHT22;7723;52.170;9.978;2024-02-23T04:02:21;5.40;1.00
15241;DHT22;7723;52.170;9.978;2024-02-23T04:04:48;5.40;99.90
15241;DHT22;7723;52.170;9.978;2024-02-23T04:07:16;5.50;31.60
15241;DHT22;7723;52.170;9.978;2024-02-23T04:09:44;5.40;99.90
15241;DHT22;7723;52.170;9.978;2024-02-23T04:12:11;5.40;99.90
15241;DHT22;7723;52.170;9.978;2024-02-23T04:14:38;5.40;99.90
15241;DHT22;7723;52.170;9.978;2024-02-23T04:17:06;5.30;1.00
15241;DHT22;7723;52.170;9.978;2024-02-23T04:19:33;5.30;1.00
15241;DHT22;7723;52.170;9.978;2024-02-23T04:22:00;5.30;1.00
15241;DHT22;7723;52.170;9.978;2024-02-23T04:24:27;5.20;1.00
15241;DHT22;7723;52.170;9.978;2024-02-23T04:26:56;5.30;99.90
15241;DHT22;7723;52.170;9.978;2024-02-23T04:29:23;5.30;99.90
15241;DHT22;7723;52.170;9.978;2024-02-23T04:31:50;5.30;99.90
15241;DHT22;7723;52.170;9.978;2024-02-23T04:34:17;5.30;99.90
15241;DHT22;7723;52.170;9.978;2024-02-23T04:36:44;5.30;99.90
15241;DHT22;7723;52.170;9.978;2024-02-23T04:39:11;5.30;99.90
15241;DHT22;7723;52.170;9.978;2024-02-23T04:41:38;5.30;1.00
15241;DHT22;7723;52.170;9.978;2024-02-23T04:44:06;5.30;1.00
15241;DHT22;7723;52.170;9.978;2024-02-23T04:46:34;5.30;1.00
15241;DHT22;7723;52.170;9.978;2024-02-23T04:49:01;5.30;1.00
15241;DHT22;7723;52.170;9.978;2024-02-23T04:51:28;5.30;1.00
15241;DHT22;7723;52.170;9.978;2024-02-23T04:53:55;5.40;99.90
15241;DHT22;7723;52.170;9.978;2024-02-23T04:56:22;5.50;13.60
15241;DHT22;7723;52.170;9.978;2024-02-23T04:58:51;5.50;1.00
15241;DHT22;7723;52.170;9.978;2024-02-23T05:01:19;5.50;1.00
15241;DHT22;7723;52.170;9.978;2024-02-23T05:03:46;5.50;99.90
15241;DHT22;7723;52.170;9.978;2024-02-23T05:06:14;5.50;99.90
15241;DHT22;7723;52.170;9.978;2024-02-23T05:08:41;5.60;1.00
15241;DHT22;7723;52.170;9.978;2024-02-23T05:11:08;5.70;1.00
15241;DHT22;7723;52.170;9.978;2024-02-23T05:13:35;5.70;1.00
15241;DHT22;7723;52.170;9.978;2024-02-23T05:16:05;5.60;1.00
15241;DHT22;7723;52.170;9.978;2024-02-23T05:18:34;5.60;1.00
15241;DHT22;7723;52.170;9.978;2024-02-23T05:21:01;5.50;1.00
15241;DHT22;7723;52.170;9.978;2024-02-23T05:23:28;5.60;99.90
15241;DHT22;7723;52.170;9.978;2024-02-23T05:25:55;5.60;99.90
15241;DHT22;7723;52.170;9.978;2024-02-23T05:28:22;5.60;99.90
15241;DHT22;7723;52.170;9.978;2024-02-23T05:30:49;5.60;99.90
15241;DHT22;7723;52.170;9.978;2024-02-23T05:33:16;5.60;1.00
15241;DHT22;7723;52.170;9.978;2024-02-23T05:35:47;5.60;1.00
15241;DHT22;7723;52.170;9.978;2024-02-23T05:38:15;5.50;1.00
15241;DHT22;7723;52.170;9.978;2024-02-23T05:40:42;5.60;74.50
15241;DHT22;7723;52.170;9.978;2024-02-23T05:43:09;5.60;1.00
15241;DHT22;7723;52.170;9.978;2024-02-23T05:45:37;5.60;1.00
15241;DHT22;7723;52.170;9.978;2024-02-23T05:48:04;5.60;1.00
15241;DHT22;7723;52.170;9.978;2024-02-23T05:50:32;5.50;99.90
15241;DHT22;7723;52.170;9.978;2024-02-23T05:53:01;5.50;99.90
15241;DHT22;7723;52.170;9.978;2024-02-23T05:55:30;5.50;1.00
15241;DHT22;7723;52.170;9.978;2024-02-23T05:57:57;5.50;1.00
15241;DHT22;7723;52.170;9.978;2024-02-23T06:00:24;5.50;1.00
15241;DHT22;7723;52.170;9.978;2024-02-23T06:02:51;5.50;1.00
15241;DHT22;7723;52.170;9.978;2024-02-23T06:05:18;5.50;1.00
15241;DHT22;7723;52.170;9.978;2024-02-23T06:07:45;5.50;41.10
15241;DHT22;7723;52.170;9.978;2024-02-23T06:10:14;5.50;99.90
15241;DHT22;7723;52.170;9.978;2024-02-23T06:12:41;5.60;1.00
15241;DHT22;7723;52.170;9.978;2024-02-23T06:15:09;5.70;1.00
15241;DHT22;7723;52.170;9.978;2024-02-23T06:17:37;5.70;1.00
15241;DHT22;7723;52.170;9.978;2024-02-23T06:20:06;5.80;1.00
15241;DHT22;7723;52.170;9.978;2024-02-23T06:22:33;5.80;1.00
15241;DHT22;7723;52.170;9.978;2024-02-23T06:25:00;5.80;1.00
15241;DHT22;7723;52.170;9.978;2024-02-23T06:27:29;5.80;1.00
15241;DHT22;7723;52.170;9.978;2024-02-23T06:29:56;5.80;1.00
15241;DHT22;7723;52.170;9.978;2024-02-23T06:32:23;5.70;1.00
15241;DHT22;7723;52.170;9.978;2024-02-23T06:34:50;5.80;1.00
15241;DHT22;7723;52.170;9.978;2024-02-23T06:37:17;5.80;1.00
15241;DHT22;7723;52.170;9.978;2024-02-23T06:39:44;5.80;1.00
15241;DHT22;7723;52.170;9.978;2024-02-23T06:42:15;5.80;1.00
15241;DHT22;7723;52.170;9.978;2024-02-23T06:44:44;5.80;1.00
15241;DHT22;7723;52.170;9.978;2024-02-23T06:47:11;5.70;1.00
15241;DHT22;7723;52.170;9.978;2024-02-23T06:49:41;5.80;1.00
15241;DHT22;7723;52.170;9.978;2024-02-23T06:52:08;5.80;1.00
15241;DHT22;7723;52.170;9.978;2024-02-23T06:54:36;5.80;1.00
15241;DHT22;7723;52.170;9.978;2024-02-23T06:57:03;5.80;1.00
15241;DHT22;7723;52.170;9.978;2024-02-23T06:59:30;5.80;1.00
15241;DHT22;7723;52.170;9.978;2024-02-23T07:01:59;5.80;1.00
15241;DHT22;7723;52.170;9.978;2024-02-23T07:04:26;5.90;1.00
15241;DHT22;7723;52.170;9.978;2024-02-23T07:06:55;5.90;1.00
15241;DHT22;7723;52.170;9.978;2024-02-23T07:09:22;5.90;1.00
15241;DHT22;7723;52.170;9.978;2024-02-23T07:11:49;5.90;1.00
15241;DHT22;7723;52.170;9.978;2024-02-23T07:14:16;5.90;1.00
15241;DHT22;7723;52.170;9.978;2024-02-23T07:16:43;6.00;1.00
15241;DHT22;7723;52.170;9.978;2024-02-23T07:19:12;5.90;1.00
15241;DHT22;7723;52.170;9.978;2024-02-23T07:21:39;5.90;1.00
15241;DHT22;7723;52.170;9.978;2024-02-23T07:24:07;5.90;1.00
15241;DHT22;7723;52.170;9.978;2024-02-23T07:26:34;6.00;99.90
15241;DHT22;7723;52.170;9.978;2024-02-23T07:29:01;6.00;99.90
15241;DHT22;7723;52.170;9.978;2024-02-23T07:31:29;6.00;1.00
15241;DHT22;7723;52.170;9.978;2024-02-23T07:33:56;6.00;1.00
15241;DHT22;7723;52.170;9.978;2024-02-23T07:36:25;6.10;1.00
15241;DHT22;7723;52.170;9.978;2024-02-23T07:38:52;6.10;99.90
15241;DHT22;7723;52.170;9.978;2024-02-23T07:41:19;6.20;99.90
15241;DHT22;7723;52.170;9.978;2024-02-23T07:43:46;6.20;99.90
15241;DHT22;7723;52.170;9.978;2024-02-23T07:46:13;6.20;99.90
15241;DHT22;7723;52.170;9.978;2024-02-23T07:48:42;6.30;99.90
15241;DHT22;7723;52.170;9.978;2024-02-23T07:51:09;6.30;99.90
15241;DHT22;7723;52.170;9.978;2024-02-23T07:53:37;6.40;99.90
15241;DHT22;7723;52.170;9.978;2024-02-23T07:56:07;6.30;1.00
15241;DHT22;7723;52.170;9.978;2024-02-23T07:58:34;6.40;1.00
15241;DHT22;7723;52.170;9.978;2024-02-23T08:01:01;6.40;1.00
15241;DHT22;7723;52.170;9.978;2024-02-23T08:03:29;6.40;94.90
15241;DHT22;7723;52.170;9.978;2024-02-23T08:05:57;6.40;1.00
15241;DHT22;7723;52.170;9.978;2024-02-23T08:08:24;6.50;1.00
15241;DHT22;7723;52.170;9.978;2024-02-23T08:10:54;6.60;1.00
15241;DHT22;7723;52.170;9.978;2024-02-23T08:13:21;6.60;1.00
15241;DHT22;7723;52.170;9.978;2024-02-23T08:15:48;6.60;1.00
15241;DHT22;7723;52.170;9.978;2024-02-23T08:18:15;6.60;1.00
15241;DHT22;7723;52.170;9.978;2024-02-23T08:20:42;6.60;1.00
15241;DHT22;7723;52.170;9.978;2024-02-23T08:23:09;6.70;1.00
15241;DHT22;7723;52.170;9.978;2024-02-23T08:25:36;6.70;1.00
15241;DHT22;7723;52.170;9.978;2024-02-23T08:28:05;6.70;1.00
15241;DHT22;7723;52.170;9.978;2024-02-23T08:30:33;6.70;1.00
15241;DHT22;7723;52.170;9.978;2024-02-23T08:33:01;6.90;1.00
15241;DHT22;7723;52.170;9.978;2024-02-23T08:35:28;6.80;1.00
15241;DHT22;7723;52.170;9.978;2024-02-23T08:37:55;6.80;99.90
15241;DHT22;7723;52.170;9.978;2024-02-23T08:40:22;6.80;99.90
15241;DHT22;7723;52.170;9.978;2024-02-23T08:42:49;6.80;99.90
15241;DHT22;7723;52.170;9.978;2024-02-23T08:45:18;6.90;99.90
15241;DHT22;7723;52.170;9.978;2024-02-23T08:47:45;6.90;99.90
15241;DHT22;7723;52.170;9.978;2024-02-23T08:50:13;7.00;99.90
15241;DHT22;7723;52.170;9.978;2024-02-23T08:52:40;7.00;99.90
15241;DHT22;7723;52.170;9.978;2024-02-23T08:55:07;7.10;99.90
15241;DHT22;7723;52.170;9.978;2024-02-23T08:57:34;7.20;99.90
15241;DHT22;7723;52.170;9.978;2024-02-23T09:00:02;7.10;99.90
15241;DHT22;7723;52.170;9.978;2024-02-23T09:02:32;7.20;99.90
15241;DHT22;7723;52.170;9.978;2024-02-23T09:05:00;7.10;99.90
15241;DHT22;7723;52.170;9.978;2024-02-23T09:07:28;7.10;99.90
15241;DHT22;7723;52.170;9.978;2024-02-23T09:09:56;7.40;99.90
15241;DHT22;7723;52.170;9.978;2024-02-23T09:12:23;8.00;99.90
15241;DHT22;7723;52.170;9.978;2024-02-23T09:14:51;8.30;1.00
15241;DHT22;7723;52.170;9.978;2024-02-23T09:17:18;8.00;1.00
15241;DHT22;7723;52.170;9.978;2024-02-23T09:19:48;7.80;1.00
15241;DHT22;7723;52.170;9.978;2024-02-23T09:22:15;7.70;31.90
15241;DHT22;7723;52.170;9.978;2024-02-23T09:24:42;7.60;4.10
15241;DHT22;7723;52.170;9.978;2024-02-23T09:27:11;7.60;1.00
15241;DHT22;7723;52.170;9.978;2024-02-23T09:29:40;7.60;61.10
15241;DHT22;7723;52.170;9.978;2024-02-23T09:32:07;7.70;33.60
15241;DHT22;7723;52.170;9.978;2024-02-23T09:34:34;8.00;38.40
15241;DHT22;7723;52.170;9.978;2024-02-23T09:37:03;8.70;1.00
15241;DHT22;7723;52.170;9.978;2024-02-23T09:39:30;9.50;1.00
15241;DHT22;7723;52.170;9.978;2024-02-23T09:41:57;9.10;1.00
15241;DHT22;7723;52.170;9.978;2024-02-23T09:44:27;9.10;1.00
15241;DHT22;7723;52.170;9.978;2024-02-23T09:46:59;9.70;1.00
15241;DHT22;7723;52.170;9.978;2024-02-23T09:49:27;10.10;1.00
15241;DHT22;7723;52.170;9.978;2024-02-23T09:51:55;10.00;1.00
15241;DHT22;7723;52.170;9.978;2024-02-23T09:54:23;9.90;1.00
15241;DHT22;7723;52.170;9.978;2024-02-23T09:56:51;9.70;1.00
15241;DHT22;7723;52.170;9.978;2024-02-23T09:59:18;9.60;1.00
15241;DHT22;7723;52.170;9.978;2024-02-23T10:01:45;9.80;1.00
15241;DHT22;7723;52.170;9.978;2024-02-23T10:04:14;9.80;1.00
15241;DHT22;7723;52.170;9.978;2024-02-23T10:06:42;9.90;1.00
15241;DHT22;7723;52.170;9.978;2024-02-23T10:09:09;10.00;1.00
15241;DHT22;7723;52.170;9.978;2024-02-23T10:11:39;10.00;1.00
15241;DHT22;7723;52.170;9.978;2024-02-23T10:14:07;10.20;1.00
15241;DHT22;7723;52.170;9.978;2024-02-23T10:16:35;9.80;1.00
15241;DHT22;7723;52.170;9.978;2024-02-23T10:19:02;9.30;1.00
15241;DHT22;7723;52.170;9.978;2024-02-23T10:21:29;9.30;1.00
15241;DHT22;7723;52.170;9.978;2024-02-23T10:23:57;9.50;1.00
15241;DHT22;7723;52.170;9.978;2024-02-23T10:26:24;9.60;1.00
15241;DHT22;7723;52.170;9.978;2024-02-23T10:28:55;9.50;1.00
15241;DHT22;7723;52.170;9.978;2024-02-23T10:31:24;9.50;1.00
15241;DHT22;7723;52.170;9.978;2024-02-23T10:33:51;9.70;1.00
15241;DHT22;7723;52.170;9.978;2024-02-23T10:36:19;9.90;1.00
15241;DHT22;7723;52.170;9.978;2024-02-23T10:38:49;9.80;1.00
15241;DHT22;7723;52.170;9.978;2024-02-23T10:41:19;10.00;1.00
15241;DHT22;7723;52.170;9.978;2024-02-23T10:43:48;10.10;1.00
15241;DHT22;7723;52.170;9.978;2024-02-23T10:46:16;9.90;1.00
15241;DHT22;7723;52.170;9.978;2024-02-23T10:48:45;9.70;1.00
15241;DHT22;7723;52.170;9.978;2024-02-23T10:51:14;9.80;1.00
15241;DHT22;7723;52.170;9.978;2024-02-23T10:53:41;9.80;1.00
15241;DHT22;7723;52.170;9.978;2024-02-23T10:56:10;9.80;1.00
15241;DHT22;7723;52.170;9.978;2024-02-23T10:58:37;10.00;1.00
15241;DHT22;7723;52.170;9.978;2024-02-23T11:01:07;10.20;1.00
15241;DHT22;7723;52.170;9.978;2024-02-23T11:03:37;10.20;1.00
15241;DHT22;7723;52.170;9.978;2024-02-23T11:06:06;10.20;99.90
15241;DHT22;7723;52.170;9.978;2024-02-23T11:08:34;10.20;99.90
15241;DHT22;7723;52.170;9.978;2024-02-23T11:11:07;10.10;99.90
15241;DHT22;7723;52.170;9.978;2024-02-23T11:13:35;9.90;99.90
15241;DHT22;7723;52.170;9.978;2024-02-23T11:16:03;10.10;1.00
15241;DHT22;7723;52.170;9.978;2024-02-23T11:18:30;10.20;99.90
15241;DHT22;7723;52.170;9.978;2024-02-23T11:21:02;9.90;99.90
15241;DHT22;7723;52.170;9.978;2024-02-23T11:23:40;9.90;99.90
15241;DHT22;7723;52.170;9.978;2024-02-23T11:26:10;10.20;99.90
15241;DHT22;7723;52.170;9.978;2024-02-23T11:28:43;10.30;99.90
15241;DHT22;7723;52.170;9.978;2024-02-23T11:31:14;10.10;99.90
15241;DHT22;7723;52.170;9.978;2024-02-23T11:33:48;9.90;99.90
15241;DHT22;7723;52.170;9.978;2024-02-23T11:36:24;9.80;99.90
15241;DHT22;7723;52.170;9.978;2024-02-23T11:38:53;9.80;99.90
15241;DHT22;7723;52.170;9.978;2024-02-23T11:41:21;10.00;99.90
15241;DHT22;7723;52.170;9.978;2024-02-23T11:43:50;10.00;99.90
15241;DHT22;7723;52.170;9.978;2024-02-23T11:46:18;10.10;99.90
15241;DHT22;7723;52.170;9.978;2024-02-23T11:48:45;10.10;99.90
15241;DHT22;7723;52.170;9.978;2024-02-23T11:51:13;9.90;99.90
15241;DHT22;7723;52.170;9.978;2024-02-23T11:53:42;9.90;99.90
15241;DHT22;7723;52.170;9.978;2024-02-23T11:56:09;9.80;99.90
15241;DHT22;7723;52.170;9.978;2024-02-23T11:58:36;9.90;99.90
15241;DHT22;7723;52.170;9.978;2024-02-23T12:01:04;10.00;99.90
15241;DHT22;7723;52.170;9.978;2024-02-23T12:03:32;10.20;99.90
15241;DHT22;7723;52.170;9.978;2024-02-23T12:06:00;10.30;99.90
15241;DHT22;7723;52.170;9.978;2024-02-23T12:08:28;10.30;99.90
15241;DHT22;7723;52.170;9.978;2024-02-23T12:10:59;10.40;99.90
15241;DHT22;7723;52.170;9.978;2024-02-23T12:13:27;10.30;99.90
15241;DHT22;7723;52.170;9.978;2024-02-23T12:15:54;10.50;99.90
15241;DHT22;7723;52.170;9.978;2024-02-23T12:18:21;10.30;99.90
15241;DHT22;7723;52.170;9.978;2024-02-23T12:20:52;10.30;99.90
15241;DHT22;7723;52.170;9.978;2024-02-23T12:23:19;10.30;99.90
15241;DHT22;7723;52.170;9.978;2024-02-23T12:25:53;10.20;99.90
15241;DHT22;7723;52.170;9.978;2024-02-23T12:28:22;10.10;99.90
15241;DHT22;7723;52.170;9.978;2024-02-23T12:30:59;10.20;99.90
15241;DHT22;7723;52.170;9.978;2024-02-23T12:33:27;10.30;99.90
15241;DHT22;7723;52.170;9.978;2024-02-23T12:35:55;10.40;99.90
15241;DHT22;7723;52.170;9.978;2024-02-23T12:38:22;10.50;99.90
15241;DHT22;7723;52.170;9.978;2024-02-23T12:40:49;10.20;99.90
15241;DHT22;7723;52.170;9.978;2024-02-23T12:43:17;10.20;99.90
15241;DHT22;7723;52.170;9.978;2024-02-23T12:45:48;10.20;99.90
15241;DHT22;7723;52.170;9.978;2024-02-23T12:48:16;10.10;99.90
15241;DHT22;7723;52.170;9.978;2024-02-23T12:50:43;10.00;99.90
15241;DHT22;7723;52.170;9.978;2024-02-23T12:53:29;10.20;99.90
15241;DHT22;7723;52.170;9.978;2024-02-23T12:55:58;10.40;99.90
15241;DHT22;7723;52.170;9.978;2024-02-23T12:58:25;10.30;99.90
15241;DHT22;7723;52.170;9.978;2024-02-23T13:00:53;10.10;99.90
15241;DHT22;7723;52.170;9.978;2024-02-23T13:03:20;10.10;99.90
15241;DHT22;7723;52.170;9.978;2024-02-23T13:05:47;10.20;99.90
15241;DHT22;7723;52.170;9.978;2024-02-23T13:08:15;10.10;99.90
15241;DHT22;7723;52.170;9.978;2024-02-23T13:10:42;10.20;99.90
15241;DHT22;7723;52.170;9.978;2024-02-23T13:13:10;10.10;99.90
15241;DHT22;7723;52.170;9.978;2024-02-23T13:15:38;9.90;99.90
15241;DHT22;7723;52.170;9.978;2024-02-23T13:18:07;9.70;99.90
15241;DHT22;7723;52.170;9.978;2024-02-23T13:20:34;9.60;99.90
15241;DHT22;7723;52.170;9.978;2024-02-23T13:23:01;9.60;99.90
15241;DHT22;7723;52.170;9.978;2024-02-23T13:25:28;9.60;99.90
15241;DHT22;7723;52.170;9.978;2024-02-23T13:27:55;9.70;99.90
15241;DHT22;7723;52.170;9.978;2024-02-23T13:30:23;9.50;99.90
15241;DHT22;7723;52.170;9.978;2024-02-23T13:32:50;9.60;99.90
15241;DHT22;7723;52.170;9.978;2024-02-23T13:35:19;9.50;99.90
15241;DHT22;7723;52.170;9.978;2024-02-23T13:37:46;9.50;99.90
15241;DHT22;7723;52.170;9.978;2024-02-23T13:40:14;9.50;99.90
15241;DHT22;7723;52.170;9.978;2024-02-23T13:42:41;9.50;99.90
15241;DHT22;7723;52.170;9.978;2024-02-23T13:45:11;9.50;99.90
15241;DHT22;7723;52.170;9.978;2024-02-23T13:47:40;9.40;99.90
15241;DHT22;7723;52.170;9.978;2024-02-23T13:50:09;9.40;99.90
15241;DHT22;7723;52.170;9.978;2024-02-23T13:52:37;9.40;99.90
15241;DHT22;7723;52.170;9.978;2024-02-23T13:55:05;9.40;99.90
15241;DHT22;7723;52.170;9.978;2024-02-23T13:57:32;9.40;99.90
15241;DHT22;7723;52.170;9.978;2024-02-23T14:00:00;9.40;99.90
15241;DHT22;7723;52.170;9.978;2024-02-23T14:02:27;9.50;99.90
15241;DHT22;7723;52.170;9.978;2024-02-23T14:05:00;9.50;99.90
15241;DHT22;7723;52.170;9.978;2024-02-23T14:07:29;9.50;99.90
15241;DHT22;7723;52.170;9.978;2024-02-23T14:09:57;9.50;99.90
15241;DHT22;7723;52.170;9.978;2024-02-23T14:12:24;9.50;99.90
15241;DHT22;7723;52.170;9.978;2024-02-23T14:14:51;9.40;99.90
15241;DHT22;7723;52.170;9.978;2024-02-23T14:17:18;9.50;99.90
15241;DHT22;7723;52.170;9.978;2024-02-23T14:19:45;9.40;99.90
15241;DHT22;7723;52.170;9.978;2024-02-23T14:22:13;9.40;99.90
15241;DHT22;7723;52.170;9.978;2024-02-23T14:24:40;9.40;99.90
15241;DHT22;7723;52.170;9.978;2024-02-23T14:27:09;9.40;99.90
15241;DHT22;7723;52.170;9.978;2024-02-23T14:29:36;9.40;99.90
15241;DHT22;7723;52.170;9.978;2024-02-23T14:32:03;9.40;99.90
15241;DHT22;7723;52.170;9.978;2024-02-23T14:34:30;9.30;99.90
15241;DHT22;7723;52.170;9.978;2024-02-23T14:36:59;9.30;99.90
15241;DHT22;7723;52.170;9.978;2024-02-23T14:39:26;9.30;99.90
15241;DHT22;7723;52.170;9.978;2024-02-23T14:41:53;9.30;1.00
15241;DHT22;7723;52.170;9.978;2024-02-23T14:44:22;9.30;99.90
15241;DHT22;7723;52.170;9.978;2024-02-23T14:46:49;9.20;99.90
15241;DHT22;7723;52.170;9.978;2024-02-23T14:49:16;9.20;99.90
15241;DHT22;7723;52.170;9.978;2024-02-23T14:51:43;9.20;99.90
15241;DHT22;7723;52.170;9.978;2024-02-23T14:54:11;9.10;99.90
15241;DHT22;7723;52.170;9.978;2024-02-23T14:56:39;9.10;99.90
15241;DHT22;7723;52.170;9.978;2024-02-23T14:59:07;9.00;99.90
15241;DHT22;7723;52.170;9.978;2024-02-23T15:01:37;9.00;1.00
15241;DHT22;7723;52.170;9.978;2024-02-23T15:04:07;9.10;1.00
15241;DHT22;7723;52.170;9.978;2024-02-23T15:06:34;9.00;1.00
15241;DHT22;7723;52.170;9.978;2024-02-23T15:09:03;9.10;1.00
15241;DHT22;7723;52.170;9.978;2024-02-23T15:11:31;9.00;1.00
15241;DHT22;7723;52.170;9.978;2024-02-23T15:13:59;9.00;1.00
15241;DHT22;7723;52.170;9.978;2024-02-23T15:16:27;9.00;1.00
15241;DHT22;7723;52.170;9.978;2024-02-23T15:18:58;9.10;1.00
15241;DHT22;7723;52.170;9.978;2024-02-23T15:21:25;9.00;1.00
15241;DHT22;7723;52.170;9.978;2024-02-23T15:23:52;9.00;1.00
15241;DHT22;7723;52.170;9.978;2024-02-23T15:26:19;9.00;1.00
15241;DHT22;7723;52.170;9.978;2024-02-23T15:28:46;9.00;1.00
15241;DHT22;7723;52.170;9.978;2024-02-23T15:31:13;8.90;1.00
15241;DHT22;7723;52.170;9.978;2024-02-23T15:33:40;8.90;1.00
15241;DHT22;7723;52.170;9.978;2024-02-23T15:36:09;8.80;1.00
15241;DHT22;7723;52.170;9.978;2024-02-23T15:38:36;8.90;1.00
15241;DHT22;7723;52.170;9.978;2024-02-23T15:41:03;8.80;1.00
15241;DHT22;7723;52.170;9.978;2024-02-23T15:43:30;8.80;1.00
15241;DHT22;7723;52.170;9.978;2024-02-23T15:45:58;8.80;1.00
15241;DHT22;7723;52.170;9.978;2024-02-23T15:48:25;8.80;1.00
15241;DHT22;7723;52.170;9.978;2024-02-23T15:50:53;8.80;1.00
15241;DHT22;7723;52.170;9.978;2024-02-23T15:53:21;8.80;1.00
15241;DHT22;7723;52.170;9.978;2024-02-23T15:55:48;8.80;1.00
15241;DHT22;7723;52.170;9.978;2024-02-23T15:58:15;8.70;1.00
15241;DHT22;7723;52.170;9.978;2024-02-23T16:00:45;8.70;1.00
15241;DHT22;7723;52.170;9.978;2024-02-23T16:03:12;8.70;1.00
15241;DHT22;7723;52.170;9.978;2024-02-23T16:05:42;8.70;1.00
15241;DHT22;7723;52.170;9.978;2024-02-23T16:08:09;8.70;1.00
15241;DHT22;7723;52.170;9.978;2024-02-23T16:10:38;8.70;1.00